Archival Weather

Chicago O'Hare International

Chicago, Illinois (KORD)

Report from: Sunday, March 6, 2022 4:51 PM CST
Current time: Saturday, February 4, 2023 9:38 PM CST

Current weather
Weather history
Weather forecast

Temperature4.4°C (39.9°F)
Wind chill1.7°C (35.1°F)
Dew point-2.2°C (28.0°F)
Winds 6 kts (3.1 m/s, 6.9 mph) West (270°)
Visibility10 mi. (16.1 km)
Clouds Scattered clouds 2,600 ft. (792 m)
Ceiling: Broken clouds 20,000 ft. (6,096 m)
Altimeter30.04 in.Hg (1017 mB)
Relative humidity62 %
Density altitude-1,338 ft. (-408 m)
Sea-level pressure101.8 kPa (1018 mB, 30.05 in.Hg)
Remarks System requires maintenance
Automated weather observing station with precipitation discriminator
Flight conditions Visual Meteorological Conditions
Raw dataKORD 062251Z 27006KT 10SM SCT026 BKN200 04/M02 A3004 RMK AO2 SLP176 T00441022 $
An unhandled exception has occurred. See browser dev tools for details. Reload 🗙